createdAt,value
2023-03-05T00:00:09.690Z,0
2023-03-05T00:02:09.324Z,0
2023-03-05T00:04:09.277Z,0
2023-03-05T00:06:07.862Z,0
2023-03-05T00:08:11.042Z,-0.1
2023-03-05T00:10:06.560Z,-0.1
2023-03-05T00:12:09.261Z,0
2023-03-05T00:16:10.143Z,-0.1
2023-03-05T00:18:09.158Z,-0.1
2023-03-05T00:20:11.233Z,-0.1
2023-03-05T00:22:09.260Z,-0.1
2023-03-05T00:24:05.114Z,-0.1
2023-03-05T00:28:09.950Z,-0.1
2023-03-05T00:30:10.553Z,-0.1
2023-03-05T00:34:10.111Z,-0.1
2023-03-05T00:36:10.568Z,-0.1
2023-03-05T00:38:10.998Z,-0.1
2023-03-05T00:40:09.695Z,-0.1
2023-03-05T00:42:08.598Z,-0.1
2023-03-05T00:46:08.723Z,-0.1
2023-03-05T00:48:08.336Z,-0.1
2023-03-05T00:50:10.815Z,-0.1
2023-03-05T00:52:08.421Z,-0.1
2023-03-05T00:54:08.121Z,-0.1
2023-03-05T00:56:10.824Z,0
2023-03-05T00:58:09.239Z,-0.1
2023-03-05T01:00:07.926Z,-0.1
2023-03-05T01:02:10.804Z,0
2023-03-05T01:04:08.115Z,0
2023-03-05T01:06:08.848Z,0
2023-03-05T01:08:10.725Z,0
2023-03-05T01:10:10.225Z,0
2023-03-05T01:12:09.556Z,0
2023-03-05T01:14:10.602Z,0
2023-03-05T01:16:09.183Z,0
2023-03-05T01:18:10.898Z,0
2023-03-05T01:20:10.790Z,0
2023-03-05T01:22:06.591Z,0
2023-03-05T01:24:08.384Z,0
2023-03-05T01:26:10.693Z,0
2023-03-05T01:28:10.052Z,0.1
2023-03-05T01:30:09.787Z,0
2023-03-05T01:32:09.788Z,0
2023-03-05T01:34:08.413Z,-0.1
2023-03-05T01:36:08.179Z,-0.1
2023-03-05T01:40:07.569Z,0
2023-03-05T01:42:06.877Z,-0.1
2023-03-05T01:44:10.777Z,0
2023-03-05T01:46:09.246Z,0
2023-03-05T01:48:06.070Z,0
2023-03-05T01:50:10.674Z,0
2023-03-05T01:52:06.783Z,0
2023-03-05T01:54:09.603Z,0
2023-03-05T01:56:10.890Z,0
2023-03-05T01:58:04.701Z,0
2023-03-05T02:00:09.050Z,0
2023-03-05T02:02:10.929Z,0
2023-03-05T02:04:07.875Z,0
2023-03-05T02:06:09.003Z,0
2023-03-05T02:08:10.834Z,0
2023-03-05T02:10:06.512Z,0
2023-03-05T02:12:08.802Z,0
2023-03-05T02:14:10.910Z,0
2023-03-05T02:16:08.644Z,0
2023-03-05T02:18:08.165Z,0
2023-03-05T02:20:10.953Z,0
2023-03-05T02:22:07.520Z,0.1
2023-03-05T02:24:06.457Z,0
2023-03-05T02:26:10.915Z,0.1
2023-03-05T02:28:09.696Z,0
2023-03-05T02:30:07.750Z,0.1
2023-03-05T02:32:11.176Z,0.1
2023-03-05T02:34:06.084Z,0.1
2023-03-05T02:36:10.579Z,0
2023-03-05T02:40:07.474Z,0.1
2023-03-05T02:42:06.785Z,0.1
2023-03-05T02:44:10.668Z,0.1
2023-03-05T02:46:06.181Z,0.1
2023-03-05T02:48:08.220Z,0.1
2023-03-05T02:50:11.258Z,0.1
2023-03-05T02:52:08.489Z,0.1
2023-03-05T02:54:06.483Z,0.1
2023-03-05T02:58:06.135Z,0.1
2023-03-05T03:00:07.432Z,0.1
2023-03-05T03:04:09.181Z,0.1
2023-03-05T03:06:06.565Z,0.1
2023-03-05T03:10:08.943Z,0.1
2023-03-05T03:12:08.311Z,0.1
2023-03-05T03:14:10.996Z,0.2
2023-03-05T03:16:10.572Z,0.2
2023-03-05T03:18:08.366Z,0.1
2023-03-05T03:22:09.004Z,0.1
2023-03-05T03:24:10.743Z,0
2023-03-05T03:28:08.185Z,0.1
2023-03-05T03:30:07.757Z,0
2023-03-05T03:32:10.924Z,0
2023-03-05T03:34:04.694Z,0
2023-03-05T03:36:07.134Z,0
2023-03-05T03:38:10.984Z,0
2023-03-05T03:40:08.824Z,0
2023-03-05T03:42:07.332Z,0
2023-03-05T03:44:11.034Z,0
2023-03-05T03:46:08.448Z,0
2023-03-05T03:48:04.720Z,0
2023-03-05T03:50:11.006Z,0
2023-03-05T03:52:09.702Z,0.1
2023-03-05T03:54:08.180Z,0.1
2023-03-05T03:58:07.792Z,0
2023-03-05T04:00:08.256Z,0
2023-03-05T04:04:04.816Z,0
2023-03-05T04:06:07.625Z,0
2023-03-05T04:08:09.930Z,0
2023-03-05T04:10:07.628Z,0
2023-03-05T04:12:08.079Z,0
2023-03-05T04:14:11.286Z,0
2023-03-05T04:16:17.187Z,0
2023-03-05T04:19:03.669Z,0
2023-03-05T04:20:57.820Z,0
2023-03-05T04:23:01.964Z,0
2023-03-05T04:25:01.679Z,0
2023-03-05T04:27:02.414Z,0
2023-03-05T04:29:00.225Z,0
2023-03-05T04:31:01.467Z,0
2023-03-05T04:32:59.255Z,0
2023-03-05T04:34:59.475Z,0
2023-03-05T04:37:02.140Z,0
2023-03-05T04:38:59.058Z,0
2023-03-05T04:41:04.242Z,-0.1
2023-03-05T04:42:59.635Z,0
2023-03-05T04:45:03.060Z,0
2023-03-05T04:46:56.450Z,0
2023-03-05T04:49:04.565Z,-0.1
2023-03-05T04:51:02.814Z,-0.1
2023-03-05T04:53:00.249Z,-0.1
2023-03-05T04:54:57.794Z,0
2023-03-05T04:56:57.092Z,0
2023-03-05T04:59:01.090Z,0
2023-03-05T05:01:03.408Z,0
2023-03-05T05:02:55.963Z,0
2023-03-05T05:05:01.669Z,0
2023-03-05T05:07:03.747Z,0
2023-03-05T05:08:55.969Z,0
2023-03-05T05:10:56.028Z,0
2023-03-05T05:13:04.115Z,0
2023-03-05T05:15:02.700Z,0
2023-03-05T05:17:01.805Z,0
2023-03-05T05:18:56.017Z,0.1
2023-03-05T05:21:01.700Z,0
2023-03-05T05:22:57.444Z,0
2023-03-05T05:24:57.719Z,0
2023-03-05T05:27:02.493Z,0
2023-03-05T05:29:00.932Z,0
2023-03-05T05:30:57.844Z,0
2023-03-05T05:32:59.090Z,0
2023-03-05T05:34:55.995Z,0
2023-03-05T05:36:59.571Z,0
2023-03-05T05:39:01.653Z,0.1
2023-03-05T05:41:00.287Z,0
2023-03-05T05:43:01.000Z,0
2023-03-05T05:44:59.225Z,0
2023-03-05T05:46:55.998Z,0.1
2023-03-05T05:49:00.910Z,0
2023-03-05T05:51:01.273Z,0
2023-03-05T05:52:59.385Z,0
2023-03-05T05:54:59.138Z,0
2023-03-05T05:56:59.238Z,0.1
2023-03-05T05:59:03.915Z,0
2023-03-05T06:00:57.545Z,0
2023-03-05T06:02:59.689Z,0
2023-03-05T06:05:02.229Z,0.1
2023-03-05T06:06:58.130Z,0
2023-03-05T06:08:59.789Z,0
2023-03-05T06:10:56.085Z,0.1
2023-03-05T06:12:58.840Z,0.1
2023-03-05T06:15:00.606Z,0
2023-03-05T06:17:03.542Z,0.1
2023-03-05T06:18:59.536Z,0.1
2023-03-05T06:21:01.923Z,0.1
2023-03-05T06:23:00.862Z,0.1
2023-03-05T06:24:56.002Z,0.1
2023-03-05T06:26:56.011Z,0.1
2023-03-05T06:28:59.885Z,0.1
2023-03-05T06:30:59.276Z,0.1
2023-03-05T06:33:03.028Z,0.1
2023-03-05T06:35:03.698Z,0.1
2023-03-05T06:37:01.965Z,0.1
2023-03-05T06:39:03.640Z,0.1
2023-03-05T06:40:59.191Z,0.1
2023-03-05T06:42:56.008Z,0.1
2023-03-05T06:44:58.865Z,0.2
2023-03-05T06:47:05.253Z,0.2
2023-03-05T06:48:59.820Z,0.2
2023-03-05T06:51:02.260Z,0.2
2023-03-05T06:53:04.430Z,0.2
2023-03-05T06:54:58.408Z,0.2
2023-03-05T06:56:58.598Z,0.2
2023-03-05T06:58:56.023Z,0.2
2023-03-05T07:00:59.747Z,0.3
2023-03-05T07:02:56.059Z,0.3
2023-03-05T07:04:55.934Z,0.4
2023-03-05T07:07:01.538Z,0.4
2023-03-05T07:08:57.445Z,0.4
2023-03-05T07:11:03.076Z,0.5
2023-03-05T07:12:57.830Z,0.5
2023-03-05T07:14:59.337Z,0.5
2023-03-05T07:16:59.704Z,0.5
2023-03-05T07:18:58.177Z,0.5
2023-03-05T07:21:01.763Z,0.5
2023-03-05T07:23:00.480Z,0.6
2023-03-05T07:24:57.319Z,0.6
2023-03-05T07:27:00.217Z,0.6
2023-03-05T07:29:03.599Z,0.6
2023-03-05T07:30:57.238Z,0.6
2023-03-05T07:32:57.878Z,0.7
2023-03-05T07:35:02.951Z,0.6
2023-03-05T07:36:57.869Z,0.6
2023-03-05T07:38:57.109Z,0.7
2023-03-05T07:41:04.087Z,0.7
2023-03-05T07:42:56.049Z,0.8
2023-03-05T07:44:58.883Z,0.8
2023-03-05T07:47:02.688Z,0.9
2023-03-05T07:49:00.542Z,0.9
2023-03-05T07:50:59.228Z,0.9
2023-03-05T07:52:59.695Z,0.8
2023-03-05T07:54:59.285Z,0.8
2023-03-05T07:56:57.471Z,0.8
2023-03-05T07:58:59.817Z,0.8
2023-03-05T08:00:56.042Z,0.8
2023-03-05T08:02:59.630Z,0.8
2023-03-05T08:05:03.765Z,0.9
2023-03-05T08:06:57.920Z,0.9
2023-03-05T08:08:57.862Z,1
2023-03-05T08:10:56.020Z,0.9
2023-03-05T08:12:58.476Z,1.1
2023-03-05T08:15:03.426Z,0.9
2023-03-05T08:16:56.029Z,0.9
2023-03-05T08:18:58.220Z,0.9
2023-03-05T08:20:57.476Z,0.9
2023-03-05T08:22:57.118Z,0.9
2023-03-05T08:25:03.765Z,1
2023-03-05T08:26:57.479Z,1
2023-03-05T08:28:57.760Z,1.1
2023-03-05T08:31:03.837Z,1.1
2023-03-05T08:33:01.657Z,1.1
2023-03-05T08:34:58.818Z,1.1
2023-03-05T08:36:57.851Z,1.3
2023-03-05T08:38:58.867Z,1.2
2023-03-05T08:40:57.462Z,1.2
2023-03-05T08:43:04.449Z,1.2
2023-03-05T08:44:56.028Z,1.1
2023-03-05T08:49:03.515Z,1.3
2023-03-05T08:50:56.063Z,1.2
2023-03-05T08:53:02.802Z,1.4
2023-03-05T08:55:03.671Z,1.4
2023-03-05T08:56:56.047Z,1.5
2023-03-05T08:59:01.174Z,1.4
2023-03-05T09:01:02.223Z,1.4
2023-03-05T09:02:57.658Z,1.4
2023-03-05T09:04:56.045Z,1.4
2023-03-05T09:07:04.902Z,1.4
2023-03-05T09:09:02.039Z,1.5
2023-03-05T09:10:57.840Z,1.5
2023-03-05T09:12:59.044Z,1.6
2023-03-05T09:14:58.615Z,1.7
2023-03-05T09:16:59.073Z,1.6
2023-03-05T09:18:59.370Z,1.6
2023-03-05T09:21:02.580Z,1.7
2023-03-05T09:22:59.649Z,1.7
2023-03-05T09:24:59.833Z,1.8
2023-03-05T09:27:00.461Z,1.7
2023-03-05T09:28:57.324Z,1.6
2023-03-05T09:31:03.599Z,1.6
2023-03-05T09:32:57.191Z,1.8
2023-03-05T09:34:57.110Z,1.8
2023-03-05T09:36:59.640Z,1.8
2023-03-05T09:39:01.423Z,1.8
2023-03-05T09:40:57.836Z,1.8
2023-03-05T09:42:56.066Z,1.8
2023-03-05T09:44:57.528Z,1.8
2023-03-05T09:46:57.504Z,2
2023-03-05T09:49:00.235Z,2
2023-03-05T09:50:57.518Z,2
2023-03-05T09:52:56.099Z,2
2023-03-05T09:54:59.772Z,2.2
2023-03-05T09:56:57.824Z,2.2
2023-03-05T09:58:57.835Z,2.2
2023-03-05T10:00:57.409Z,2
2023-03-05T10:03:04.537Z,2.1
2023-03-05T10:04:56.058Z,2.2
2023-03-05T10:07:02.972Z,2.3
2023-03-05T10:09:01.673Z,2.3
2023-03-05T10:11:03.063Z,2.4
2023-03-05T10:15:03.641Z,2.5
2023-03-05T10:17:00.391Z,2.4
2023-03-05T10:18:58.489Z,2.3
2023-03-05T10:20:57.882Z,2.3
2023-03-05T10:22:56.080Z,2.4
2023-03-05T10:25:03.070Z,2.3
2023-03-05T10:26:57.945Z,2.3
2023-03-05T10:28:58.123Z,2.4
2023-03-05T10:31:00.988Z,2.3
2023-03-05T10:32:57.972Z,2.4
2023-03-05T10:35:02.523Z,2.6
2023-03-05T10:37:03.350Z,2.6
2023-03-05T10:39:03.356Z,2.7
2023-03-05T10:41:02.724Z,2.6
2023-03-05T10:42:59.858Z,2.7
2023-03-05T10:44:59.397Z,2.9
2023-03-05T10:47:04.020Z,3
2023-03-05T10:48:57.885Z,2.8
2023-03-05T10:51:01.137Z,2.9
2023-03-05T10:53:04.534Z,3.1
2023-03-05T10:54:57.895Z,3
2023-03-05T10:56:57.855Z,3
2023-03-05T11:01:03.705Z,3
2023-03-05T11:02:56.075Z,3
2023-03-05T11:04:58.608Z,2.9
2023-03-05T11:06:57.128Z,3.1
2023-03-05T11:09:01.726Z,3.2
2023-03-05T11:10:58.706Z,3.2
2023-03-05T11:12:59.318Z,3
2023-03-05T11:15:00.856Z,3.1
2023-03-05T11:16:57.495Z,3.1
2023-03-05T11:18:56.043Z,3.2
2023-03-05T11:20:57.885Z,3.1
2023-03-05T11:22:57.928Z,3.1
2023-03-05T11:25:02.654Z,3.2
2023-03-05T11:26:56.061Z,3.1
2023-03-05T11:28:57.458Z,3
2023-03-05T11:30:57.890Z,3.1
2023-03-05T11:32:57.499Z,3.4
2023-03-05T11:34:58.598Z,3.3
2023-03-05T11:36:57.854Z,3.3
2023-03-05T11:39:04.138Z,3.3
2023-03-05T11:40:57.949Z,3.2
2023-03-05T11:43:04.495Z,3.3
2023-03-05T11:45:00.666Z,3.4
2023-03-05T11:46:56.003Z,3.3
2023-03-05T11:49:02.911Z,3.1
2023-03-05T11:51:00.423Z,3.1
2023-03-05T11:52:56.086Z,3.3
2023-03-05T11:54:58.396Z,3.3
2023-03-05T11:56:56.084Z,3.3
2023-03-05T11:58:58.552Z,3.3
2023-03-05T12:01:00.122Z,3.5
2023-03-05T12:02:56.139Z,3.3
2023-03-05T12:04:56.120Z,3.3
2023-03-05T12:06:56.049Z,3.2
2023-03-05T12:08:59.725Z,3.3
2023-03-05T12:10:56.167Z,3.3
2023-03-05T12:13:00.393Z,3.4
2023-03-05T12:15:04.054Z,3.5
2023-03-05T12:16:59.344Z,3.6
2023-03-05T12:18:57.597Z,3.4
2023-03-05T12:21:02.481Z,3.3
2023-03-05T12:22:56.204Z,3.4
2023-03-05T12:24:59.712Z,3.4
2023-03-05T12:26:57.213Z,3.2
2023-03-05T12:28:57.924Z,3.2
2023-03-05T12:31:01.581Z,3.2
2023-03-05T12:32:56.246Z,3.1
2023-03-05T12:34:57.208Z,3.2
2023-03-05T12:36:56.168Z,3.3
2023-03-05T12:38:58.631Z,3.4
2023-03-05T12:41:01.305Z,3.4
2023-03-05T12:42:56.308Z,3.4
2023-03-05T12:44:57.619Z,3.2
2023-03-05T12:46:59.532Z,3.3
2023-03-05T12:48:58.612Z,3.3
2023-03-05T12:50:58.392Z,3.4
2023-03-05T12:53:03.241Z,3.2
2023-03-05T12:56:59.748Z,3.2
2023-03-05T12:58:57.615Z,3.3
2023-03-05T13:01:03.357Z,3.4
2023-03-05T13:03:00.534Z,3.4
2023-03-05T13:04:58.031Z,3.5
2023-03-05T13:07:03.392Z,3.5
2023-03-05T13:09:02.414Z,3.2
2023-03-05T13:10:56.174Z,3.1
2023-03-05T13:13:02.654Z,3.3
2023-03-05T13:14:56.171Z,3.3
2023-03-05T13:17:01.611Z,3.2
2023-03-05T13:18:57.636Z,3.2
2023-03-05T13:21:01.825Z,3.1
2023-03-05T13:22:58.020Z,3.2
2023-03-05T13:24:59.199Z,3.2
2023-03-05T13:26:56.252Z,3.2
2023-03-05T13:29:01.791Z,3.3
2023-03-05T13:30:58.442Z,3.2
2023-03-05T13:32:56.285Z,3.3
2023-03-05T13:35:02.128Z,3.3
2023-03-05T13:36:59.872Z,3.4
2023-03-05T13:38:56.270Z,3.3
2023-03-05T13:40:59.862Z,3.1
2023-03-05T13:43:05.180Z,3.2
2023-03-05T13:45:04.750Z,3.3
2023-03-05T13:47:03.263Z,3.1
2023-03-05T13:49:01.067Z,2.9
2023-03-05T13:50:57.682Z,3.2
2023-03-05T13:53:04.322Z,3.1
2023-03-05T13:55:00.562Z,3.1
2023-03-05T13:57:02.795Z,3
2023-03-05T13:58:59.695Z,3.1
2023-03-05T14:01:02.620Z,3.1
2023-03-05T14:03:02.962Z,2.9
2023-03-05T14:04:59.646Z,2.9
2023-03-05T14:07:02.489Z,2.9
2023-03-05T14:09:03.190Z,2.9
2023-03-05T14:13:00.203Z,3
2023-03-05T14:15:01.974Z,3
2023-03-05T14:16:58.731Z,3
2023-03-05T14:18:56.367Z,3
2023-03-05T14:23:02.146Z,2.9
2023-03-05T14:25:01.097Z,3
2023-03-05T14:27:02.067Z,2.8
2023-03-05T14:29:01.016Z,2.8
2023-03-05T14:30:59.245Z,2.8
2023-03-05T14:32:57.962Z,2.9
2023-03-05T14:35:02.927Z,2.9
2023-03-05T14:36:58.769Z,2.8
2023-03-05T14:38:59.739Z,2.8
2023-03-05T14:40:56.567Z,2.7
2023-03-05T14:42:58.659Z,2.7
2023-03-05T14:44:57.826Z,2.7
2023-03-05T14:47:03.997Z,2.7
2023-03-05T14:49:01.542Z,2.6
2023-03-05T14:50:57.560Z,2.6
2023-03-05T14:53:02.942Z,2.7
2023-03-05T14:55:03.714Z,2.6
2023-03-05T14:57:03.916Z,2.6
2023-03-05T14:59:03.409Z,2.6
2023-03-05T15:00:58.664Z,2.5
2023-03-05T15:03:03.947Z,2.6
2023-03-05T15:05:05.632Z,2.6
2023-03-05T15:07:00.823Z,2.7
2023-03-05T15:09:03.118Z,2.6
2023-03-05T15:11:05.851Z,2.6
2023-03-05T15:12:56.496Z,2.5
2023-03-05T15:15:04.982Z,2.5
2023-03-05T15:16:58.966Z,2.3
2023-03-05T15:19:04.092Z,2.3
2023-03-05T15:21:01.250Z,2.3
2023-03-05T15:22:58.490Z,2.3
2023-03-05T15:25:05.056Z,2.3
2023-03-05T15:27:02.040Z,2.3
2023-03-05T15:31:00.760Z,2.4
2023-03-05T15:32:59.580Z,2.3
2023-03-05T15:35:01.817Z,2.3
2023-03-05T15:37:00.140Z,2.5
2023-03-05T15:39:01.823Z,2.5
2023-03-05T15:40:59.932Z,2.5
2023-03-05T15:43:01.039Z,2.4
2023-03-05T15:44:59.612Z,2.4
2023-03-05T15:47:02.024Z,2.3
2023-03-05T15:49:02.890Z,2.4
2023-03-05T15:51:03.702Z,2.4
2023-03-05T15:53:00.926Z,2.4
2023-03-05T15:55:01.984Z,2.4
2023-03-05T15:57:02.126Z,2.3
2023-03-05T15:59:03.540Z,2.3
2023-03-05T16:00:58.106Z,2.3
2023-03-05T16:02:58.617Z,2.3
2023-03-05T16:05:04.062Z,2.3
2023-03-05T16:07:01.762Z,2.2
2023-03-05T16:09:04.363Z,2.1
2023-03-05T16:11:05.000Z,2.2
2023-03-05T16:12:57.754Z,2.2
2023-03-05T16:14:59.222Z,2.2
2023-03-05T16:17:04.556Z,2.2
2023-03-05T16:19:04.273Z,2.1
2023-03-05T16:20:58.123Z,2.2
2023-03-05T16:23:01.723Z,2.2
2023-03-05T16:25:04.397Z,2.1
2023-03-05T16:27:00.943Z,2.1
2023-03-05T16:28:59.950Z,2.1
2023-03-05T16:31:03.374Z,2
2023-03-05T16:33:05.944Z,2
2023-03-05T16:35:02.412Z,2
2023-03-05T16:37:00.047Z,2
2023-03-05T16:39:02.536Z,1.9
2023-03-05T16:41:08.452Z,1.9
2023-03-05T16:43:05.680Z,2
2023-03-05T16:44:57.941Z,1.9
2023-03-05T16:47:03.326Z,1.9
2023-03-05T16:49:03.128Z,2
2023-03-05T16:50:56.314Z,2
2023-03-05T16:53:04.891Z,1.9
2023-03-05T16:55:01.340Z,1.9
2023-03-05T16:56:56.338Z,1.9
2023-03-05T16:59:02.882Z,1.8
2023-03-05T17:01:05.131Z,1.7
2023-03-05T17:03:05.024Z,1.8
2023-03-05T17:05:05.041Z,1.9
2023-03-05T17:06:59.578Z,1.8
2023-03-05T17:09:04.402Z,1.8
2023-03-05T17:11:05.127Z,1.8
2023-03-05T17:13:01.894Z,1.8
2023-03-05T17:15:00.582Z,1.8
2023-03-05T17:17:04.543Z,1.8
2023-03-05T17:19:00.624Z,1.7
2023-03-05T17:21:04.777Z,1.7
2023-03-05T17:23:02.396Z,1.8
2023-03-05T17:25:05.379Z,1.9
2023-03-05T17:26:58.894Z,1.8
2023-03-05T17:29:02.981Z,1.8
2023-03-05T17:31:02.885Z,1.8
2023-03-05T17:32:59.613Z,1.7
2023-03-05T17:35:05.444Z,1.7
2023-03-05T17:36:56.360Z,1.8
2023-03-05T17:38:59.167Z,1.6
2023-03-05T17:40:58.548Z,1.7
2023-03-05T17:42:59.126Z,1.7
2023-03-05T17:45:05.659Z,1.7
2023-03-05T17:47:02.582Z,1.7
2023-03-05T17:49:03.525Z,1.7
2023-03-05T17:50:59.547Z,1.7
2023-03-05T17:53:00.606Z,1.6
2023-03-05T17:54:58.409Z,1.7
2023-03-05T17:56:58.721Z,1.7
2023-03-05T17:58:59.848Z,1.7
2023-03-05T18:00:56.950Z,1.7
2023-03-05T18:03:04.432Z,1.7
2023-03-05T18:05:00.275Z,1.6
2023-03-05T18:07:03.210Z,1.6
2023-03-05T18:09:01.698Z,1.7
2023-03-05T18:11:05.120Z,1.7
2023-03-05T18:12:57.914Z,1.6
2023-03-05T18:14:58.691Z,1.7
2023-03-05T18:17:03.012Z,1.6
2023-03-05T18:19:02.592Z,1.6
2023-03-05T18:21:05.070Z,1.7
2023-03-05T18:23:04.685Z,1.7
2023-03-05T18:25:00.524Z,1.7
2023-03-05T18:26:58.695Z,1.6
2023-03-05T18:29:03.636Z,1.6
2023-03-05T18:30:56.927Z,1.6
2023-03-05T18:33:02.888Z,1.6
2023-03-05T18:35:02.119Z,1.5
2023-03-05T18:37:02.199Z,1.6
2023-03-05T18:38:59.234Z,1.5
2023-03-05T18:41:03.042Z,1.5
2023-03-05T18:43:01.245Z,1.4
2023-03-05T18:45:01.699Z,1.4
2023-03-05T18:47:03.650Z,1.4
2023-03-05T18:49:04.769Z,1.4
2023-03-05T18:51:03.786Z,1.4
2023-03-05T18:52:58.786Z,1.4
2023-03-05T18:55:01.502Z,1.4
2023-03-05T18:56:59.599Z,1.4
2023-03-05T18:59:04.413Z,1.4
2023-03-05T19:00:59.284Z,1.4
2023-03-05T19:02:58.325Z,1.4
2023-03-05T19:05:03.285Z,1.4
2023-03-05T19:06:58.559Z,1.4
2023-03-05T19:09:04.509Z,1.4
2023-03-05T19:11:01.729Z,1.4
2023-03-05T19:12:58.205Z,1.4
2023-03-05T19:15:02.284Z,1.5
2023-03-05T19:16:58.231Z,1.5
2023-03-05T19:18:58.974Z,1.5
2023-03-05T19:21:05.325Z,1.5
2023-03-05T19:22:57.685Z,1.4
2023-03-05T19:25:03.299Z,1.5
2023-03-05T19:26:58.644Z,1.4
2023-03-05T19:28:58.679Z,1.4
2023-03-05T19:31:03.280Z,1.4
2023-03-05T19:32:56.876Z,1.4
2023-03-05T19:34:58.451Z,1.4
2023-03-05T19:36:56.837Z,1.4
2023-03-05T19:39:03.052Z,1.4
2023-03-05T19:41:01.784Z,1.4
2023-03-05T19:42:56.892Z,1.4
2023-03-05T19:45:00.196Z,1.4
2023-03-05T19:46:58.460Z,1.4
2023-03-05T19:49:05.738Z,1.4
2023-03-05T19:50:56.908Z,1.3
2023-03-05T19:52:56.421Z,1.3
2023-03-05T19:55:02.696Z,1.3
2023-03-05T19:57:01.057Z,1.3
2023-03-05T19:59:03.129Z,1.3
2023-03-05T20:00:59.733Z,1.3
2023-03-05T20:02:56.872Z,1.3
2023-03-05T20:05:01.229Z,1.3
2023-03-05T20:07:05.750Z,1.2
2023-03-05T20:08:58.768Z,1.3
2023-03-05T20:10:58.455Z,1.3
2023-03-05T20:13:05.225Z,1.3
2023-03-05T20:14:59.001Z,1.2
2023-03-05T20:16:57.777Z,1.3
2023-03-05T20:19:02.178Z,1.3
2023-03-05T20:21:02.571Z,1.2
2023-03-05T20:22:56.983Z,1.3
2023-03-05T20:25:02.759Z,1.3
2023-03-05T20:27:02.653Z,1.3
2023-03-05T20:29:05.035Z,1.3
2023-03-05T20:31:02.277Z,1.3
2023-03-05T20:32:59.454Z,1.3
2023-03-05T20:34:58.775Z,1.3
2023-03-05T20:37:01.160Z,1.3
2023-03-05T20:38:58.006Z,1.3
2023-03-05T20:41:04.809Z,1.2
2023-03-05T20:42:58.555Z,1.3
2023-03-05T20:46:58.897Z,1
2023-03-05T20:49:05.364Z,1.1
2023-03-05T20:51:04.802Z,1.1
2023-03-05T20:52:56.683Z,1.1
2023-03-05T20:54:58.616Z,1.1
2023-03-05T20:57:03.850Z,1.1
2023-03-05T20:59:06.614Z,1.1
2023-03-05T21:01:05.588Z,1.1
2023-03-05T21:03:04.248Z,1.1
2023-03-05T21:04:56.700Z,1.2
2023-03-05T21:06:59.856Z,1.1
2023-03-05T21:09:04.381Z,1.1
2023-03-05T21:11:07.006Z,1.1
2023-03-05T21:13:00.731Z,1.1
2023-03-05T21:15:03.413Z,1.2
2023-03-05T21:16:58.518Z,1.1
2023-03-05T21:18:58.476Z,1.1
2023-03-05T21:21:02.645Z,1.2
2023-03-05T21:23:00.452Z,1.1
2023-03-05T21:24:58.474Z,1.1
2023-03-05T21:27:00.494Z,1.1
2023-03-05T21:29:01.770Z,1.2
2023-03-05T21:30:58.901Z,1.1
2023-03-05T21:33:01.957Z,1.1
2023-03-05T21:35:00.087Z,1.2
2023-03-05T21:37:01.847Z,1.2
2023-03-05T21:38:58.185Z,1.2
2023-03-05T21:41:05.163Z,1.1
2023-03-05T21:43:01.130Z,1.2
2023-03-05T21:44:58.610Z,1.1
2023-03-05T21:47:01.470Z,1.1
2023-03-05T21:49:06.685Z,1
2023-03-05T21:50:59.245Z,0.9
2023-03-05T21:52:58.523Z,1.1
2023-03-05T21:55:03.516Z,0.9
2023-03-05T21:57:00.810Z,0.9
2023-03-05T21:59:01.119Z,0.9
2023-03-05T22:01:01.380Z,0.9
2023-03-05T22:02:56.318Z,1
2023-03-05T22:05:02.572Z,0.9
2023-03-05T22:07:01.669Z,1
2023-03-05T22:09:03.420Z,0.9
2023-03-05T22:10:58.561Z,0.9
2023-03-05T22:13:00.563Z,1
2023-03-05T22:14:58.258Z,1
2023-03-05T22:17:03.513Z,0.9
2023-03-05T22:19:00.259Z,0.9
2023-03-05T22:21:04.617Z,0.9
2023-03-05T22:22:56.807Z,0.9
2023-03-05T22:25:03.465Z,0.9
2023-03-05T22:26:57.154Z,0.8
2023-03-05T22:28:56.675Z,0.9
2023-03-05T22:31:03.395Z,0.9
2023-03-05T22:33:00.695Z,0.9
2023-03-05T22:35:02.128Z,0.9
2023-03-05T22:37:04.768Z,1
2023-03-05T22:39:01.248Z,0.9
2023-03-05T22:41:02.029Z,1
2023-03-05T22:42:58.571Z,0.9
2023-03-05T22:45:02.043Z,0.9
2023-03-05T22:47:06.691Z,0.9
2023-03-05T22:48:59.114Z,0.8
2023-03-05T22:50:58.521Z,0.8
2023-03-05T22:53:01.897Z,0.8
2023-03-05T22:55:04.216Z,0.8
2023-03-05T22:56:59.982Z,0.8
2023-03-05T22:59:02.534Z,0.9
2023-03-05T23:01:06.615Z,0.8
2023-03-05T23:02:56.722Z,0.8
2023-03-05T23:04:57.051Z,0.8
2023-03-05T23:07:00.301Z,0.8
2023-03-05T23:09:06.826Z,0.8
2023-03-05T23:10:57.821Z,0.8
2023-03-05T23:13:01.231Z,0.8
2023-03-05T23:14:57.087Z,0.8
2023-03-05T23:17:00.227Z,0.8
2023-03-05T23:19:07.264Z,0.8
2023-03-05T23:21:02.250Z,0.9
2023-03-05T23:23:00.664Z,0.9
2023-03-05T23:25:06.429Z,0.8
2023-03-05T23:27:01.993Z,0.8
2023-03-05T23:28:57.555Z,0.8
2023-03-05T23:31:03.857Z,0.7
2023-03-05T23:33:10.492Z,0.7
2023-03-05T23:34:58.547Z,0.6
2023-03-05T23:37:01.808Z,0.6
2023-03-05T23:38:56.708Z,0.6
2023-03-05T23:41:00.816Z,0.8
2023-03-05T23:43:04.982Z,0.8
2023-03-05T23:44:59.576Z,0.8
2023-03-05T23:46:56.666Z,0.8
2023-03-05T23:49:04.696Z,0.8
2023-03-05T23:50:59.120Z,0.8
2023-03-05T23:52:57.003Z,0.8
2023-03-05T23:55:01.970Z,0.7
2023-03-05T23:56:57.886Z,0.7
2023-03-05T23:58:59.941Z,0.8
